Time;durP1;ratioP1;P1;durP2;ratioP2;P2;SDS_P1;SDS_P2;PMS_P1;PMS_P2;Temp;Humidity;BMP_temperature;BMP_pressure;BME280_temperature;BME280_humidity;BME280_pressure;Samples;Min_cycle;Max_cycle;Signal;HPM_P1;HPM_P2
2022/09/23 00:01:09;;;;;;;3.00;1.90;;;12.70;99.90;;;;;;2095017;28;20746;-71
2022/09/23 00:02:10;;;;;;;3.22;2.10;;;12.70;99.90;;;;;;2093914;28;20048;-71
2022/09/23 00:03:11;;;;;;;4.75;2.40;;;12.60;99.90;;;;;;2092483;28;20071;-71
2022/09/23 00:04:11;;;;;;;3.08;1.95;;;12.70;99.90;;;;;;2099116;28;20154;-71
2022/09/23 00:05:12;;;;;;;2.03;1.83;;;12.70;99.90;;;;;;2099659;28;20089;-71
2022/09/23 00:06:16;;;;;;;3.25;2.20;;;12.60;99.90;;;;;;2093237;28;20743;-71
2022/09/23 00:07:16;;;;;;;2.30;1.95;;;12.70;99.90;;;;;;2092749;28;20025;-71
2022/09/23 00:08:17;;;;;;;2.33;1.92;;;12.70;99.90;;;;;;2091896;28;20069;-71
2022/09/23 00:09:18;;;;;;;4.22;2.05;;;12.70;99.90;;;;;;2092051;28;20508;-71
2022/09/23 00:10:18;;;;;;;3.13;2.10;;;12.70;99.90;;;;;;2093586;28;20032;-71
2022/09/23 00:11:24;;;;;;;3.80;2.10;;;12.70;99.90;;;;;;2092549;28;20021;-71
2022/09/23 00:12:25;;;;;;;4.88;2.10;;;12.70;99.90;;;;;;2094059;28;20025;-71
2022/09/23 00:13:26;;;;;;;4.28;2.08;;;12.70;99.90;;;;;;2092787;28;20025;-71
2022/09/23 00:14:26;;;;;;;2.25;1.90;;;12.70;99.90;;;;;;2101095;28;20115;-71
2022/09/23 00:15:29;;;;;;;3.92;2.40;;;12.70;99.90;;;;;;2099588;28;20056;-71
2022/09/23 00:16:32;;;;;;;2.30;1.92;;;12.70;99.90;;;;;;2091403;28;20043;-71
2022/09/23 00:17:33;;;;;;;4.28;2.30;;;12.70;99.90;;;;;;2093139;28;20095;-71
2022/09/23 00:18:34;;;;;;;5.28;2.33;;;12.70;99.90;;;;;;2093265;28;20020;-71
2022/09/23 00:19:38;;;;;;;4.32;1.88;;;12.70;99.90;;;;;;2092439;28;20080;-71
2022/09/23 00:20:39;;;;;;;3.03;1.73;;;12.70;99.90;;;;;;2091458;28;20461;-71
2022/09/23 00:21:39;;;;;;;4.32;2.15;;;12.70;99.90;;;;;;2093225;28;20432;-71
2022/09/23 00:22:40;;;;;;;2.53;2.25;;;12.70;99.90;;;;;;2092425;28;20066;-71
2022/09/23 00:23:42;;;;;;;1.90;1.70;;;12.70;99.90;;;;;;2094357;28;20418;-71
2022/09/23 00:24:43;;;;;;;2.20;1.90;;;12.70;99.90;;;;;;2091908;28;20081;-71
2022/09/23 00:25:43;;;;;;;2.67;1.80;;;12.70;99.90;;;;;;2092970;28;20070;-71
2022/09/23 00:26:44;;;;;;;4.15;1.95;;;12.70;99.90;;;;;;2101412;28;20024;-71
2022/09/23 00:27:45;;;;;;;3.10;2.35;;;12.70;99.90;;;;;;2100599;28;20024;-71
2022/09/23 00:28:47;;;;;;;1.95;1.67;;;12.70;99.90;;;;;;2093665;28;20023;-71
2022/09/23 00:29:47;;;;;;;2.25;2.00;;;12.70;99.90;;;;;;2092768;28;20102;-71
2022/09/23 00:30:48;;;;;;;2.28;2.03;;;12.70;99.90;;;;;;2092543;28;20025;-71
2022/09/23 00:31:48;;;;;;;2.88;2.03;;;12.70;99.90;;;;;;2093868;28;20029;-71
2022/09/23 00:32:51;;;;;;;3.15;1.98;;;12.70;99.90;;;;;;2093000;28;20024;-71
2022/09/23 00:34:00;;;;;;;4.57;2.10;;;12.70;99.90;;;;;;2093219;28;20511;-71
2022/09/23 00:35:02;;;;;;;3.55;2.03;;;12.70;99.90;;;;;;2092460;28;20029;-71
2022/09/23 00:36:07;;;;;;;3.17;2.38;;;12.80;99.90;;;;;;2091610;28;20466;-71
2022/09/23 00:37:07;;;;;;;5.05;2.17;;;12.70;99.90;;;;;;2094590;28;20044;-71
2022/09/23 00:38:08;;;;;;;3.90;1.85;;;12.70;99.90;;;;;;2093288;28;20025;-71
2022/09/23 00:39:09;;;;;;;2.95;1.73;;;12.70;99.90;;;;;;2092947;28;20052;-71
2022/09/23 00:40:11;;;;;;;2.85;2.50;;;12.70;99.90;;;;;;2092570;28;20036;-71
2022/09/23 00:41:14;;;;;;;3.85;2.35;;;12.70;99.90;;;;;;2092609;28;20451;-71
2022/09/23 00:42:20;;;;;;;2.03;1.88;;;12.70;99.90;;;;;;2092292;28;20476;-71
2022/09/23 00:43:44;;;;;;;4.35;2.00;;;12.80;99.90;;;;;;2092851;28;20131;-71
2022/09/23 00:44:44;;;;;;;2.95;1.98;;;12.70;99.90;;;;;;2092727;28;20647;-71
2022/09/23 00:45:48;;;;;;;3.80;2.15;;;12.70;99.90;;;;;;2091935;28;20894;-71
2022/09/23 00:46:49;;;;;;;2.55;1.88;;;12.70;99.90;;;;;;2092809;28;20815;-71
2022/09/23 00:47:58;;;;;;;5.03;2.40;;;12.70;99.90;;;;;;2093387;28;20457;-71
2022/09/23 00:49:25;;;;;;;4.25;1.90;;;12.70;99.90;;;;;;2091458;28;20048;-71
2022/09/23 00:50:35;;;;;;;2.83;1.75;;;12.70;99.90;;;;;;2091015;28;20021;-71
2022/09/23 00:51:42;;;;;;;1.70;1.60;;;12.70;99.90;;;;;;2093956;28;20056;-71
2022/09/23 00:52:43;;;;;;;3.60;1.88;;;12.70;99.90;;;;;;2093063;28;20064;-71
2022/09/23 00:53:46;;;;;;;4.82;2.20;;;12.70;99.90;;;;;;2093552;28;20438;-71
2022/09/23 00:54:47;;;;;;;4.57;2.10;;;12.70;99.90;;;;;;2092869;28;20032;-71
2022/09/23 00:55:53;;;;;;;3.00;2.15;;;12.70;99.90;;;;;;2093117;28;20036;-71
2022/09/23 00:56:55;;;;;;;5.32;2.35;;;12.70;99.90;;;;;;2092042;28;20024;-71
2022/09/23 00:57:57;;;;;;;3.78;2.22;;;12.70;99.90;;;;;;2092837;28;20031;-71
2022/09/23 00:59:00;;;;;;;2.70;2.15;;;12.70;99.90;;;;;;2092620;28;20442;-71
2022/09/23 01:00:01;;;;;;;2.72;1.92;;;12.70;99.90;;;;;;2092894;28;20977;-71
2022/09/23 01:01:03;;;;;;;3.80;2.20;;;12.70;99.90;;;;;;2094649;28;20036;-71
2022/09/23 01:02:04;;;;;;;6.95;1.88;;;12.70;99.90;;;;;;2091174;28;20125;-71
2022/09/23 01:03:06;;;;;;;4.97;2.40;;;12.70;99.90;;;;;;2091410;28;20103;-71
2022/09/23 01:04:07;;;;;;;5.55;2.40;;;12.70;99.90;;;;;;2092066;28;20056;-71
2022/09/23 01:05:08;;;;;;;3.35;2.17;;;12.80;99.90;;;;;;2095743;28;20033;-71
2022/09/23 01:06:09;;;;;;;3.38;2.17;;;12.70;99.90;;;;;;2094318;28;20073;-71
2022/09/23 01:07:10;;;;;;;3.13;2.20;;;12.70;99.90;;;;;;2093889;28;20025;-71
2022/09/23 01:08:13;;;;;;;3.08;1.63;;;12.70;99.90;;;;;;2091733;28;20021;-71
2022/09/23 01:09:14;;;;;;;5.55;2.30;;;12.70;99.90;;;;;;2093000;28;20424;-71
2022/09/23 01:10:17;;;;;;;3.33;2.20;;;12.70;99.90;;;;;;2092070;28;20090;-71
2022/09/23 01:11:51;;;;;;;4.68;2.38;;;12.70;99.90;;;;;;2091686;28;20017;-71
2022/09/23 01:13:04;;;;;;;3.85;2.25;;;12.70;99.90;;;;;;2093460;28;20032;-71
2022/09/23 01:14:44;;;;;;;4.50;1.85;;;12.70;99.90;;;;;;2092171;28;20029;-71
2022/09/23 01:16:06;;;;;;;2.45;2.00;;;12.70;99.90;;;;;;2092055;28;20017;-71
2022/09/23 01:17:20;;;;;;;4.45;2.00;;;12.70;99.90;;;;;;2093041;28;20082;-71
2022/09/23 01:18:26;;;;;;;5.72;2.10;;;12.70;99.90;;;;;;2093474;28;20016;-71
2022/09/23 01:19:45;;;;;;;3.13;1.90;;;12.70;99.90;;;;;;2092131;28;20518;-71
2022/09/23 01:21:15;;;;;;;2.95;2.10;;;12.70;99.90;;;;;;2090874;28;20020;-71
2022/09/23 01:22:28;;;;;;;2.53;2.08;;;12.70;99.90;;;;;;2092098;28;20104;-71
2022/09/23 01:23:56;;;;;;;2.20;1.75;;;12.70;99.90;;;;;;2093805;28;20020;-71
2022/09/23 01:25:02;;;;;;;2.90;1.70;;;12.70;99.90;;;;;;2092222;28;20029;-71
2022/09/23 01:26:32;;;;;;;3.15;1.88;;;12.70;99.90;;;;;;2092485;28;20774;-71
2022/09/23 01:27:36;;;;;;;3.38;2.00;;;12.70;99.90;;;;;;2091493;28;20480;-71
2022/09/23 01:28:55;;;;;;;2.90;1.92;;;12.70;99.90;;;;;;2091571;28;20060;-71
2022/09/23 01:30:15;;;;;;;2.35;1.65;;;12.70;99.90;;;;;;2091673;28;20048;-71
2022/09/23 01:31:24;;;;;;;;;;;12.70;99.90;;;;;;2091866;28;20025;-71
2022/09/23 01:32:46;;;;;;;5.20;1.75;;;12.60;99.90;;;;;;2092939;28;19950;-71
2022/09/23 01:33:57;;;;;;;2.70;1.67;;;12.60;99.90;;;;;;2091807;28;20016;-71
2022/09/23 01:35:08;;;;;;;3.53;2.20;;;12.60;99.90;;;;;;2093606;28;20024;-71
2022/09/23 01:36:21;;;;;;;4.38;1.70;;;12.60;99.90;;;;;;2092023;28;20032;-71
2022/09/23 01:37:32;;;;;;;2.65;1.73;;;12.60;99.90;;;;;;2091903;28;20021;-71
2022/09/23 01:39:01;;;;;;;3.92;1.83;;;12.60;99.90;;;;;;2092208;28;20150;-71
2022/09/23 01:40:17;;;;;;;3.10;1.80;;;12.60;99.90;;;;;;2091427;28;20056;-71
2022/09/23 01:41:46;;;;;;;4.68;1.80;;;12.60;99.90;;;;;;2092377;28;20032;-71
2022/09/23 01:42:54;;;;;;;3.00;1.30;;;12.50;99.90;;;;;;2092095;28;20051;-71
2022/09/23 01:44:18;;;;;;;2.50;1.80;;;12.50;99.90;;;;;;2091642;28;20438;-71
2022/09/23 01:45:35;;;;;;;3.92;1.80;;;12.50;99.90;;;;;;2091268;28;20032;-71
2022/09/23 01:46:50;;;;;;;3.33;1.80;;;12.50;99.90;;;;;;2093246;28;20039;-71
2022/09/23 01:47:57;;;;;;;3.65;1.90;;;12.50;99.90;;;;;;2091628;28;20407;-71
2022/09/23 01:49:08;;;;;;;3.15;1.90;;;12.50;99.90;;;;;;2091815;28;20025;-71
2022/09/23 01:52:04;;;;;;;2.83;1.83;;;12.50;99.90;;;;;;2093687;28;20036;-71
2022/09/23 01:53:13;;;;;;;4.45;2.20;;;12.50;99.90;;;;;;2094461;28;20029;-71
2022/09/23 01:54:20;;;;;;;2.90;1.40;;;12.50;99.90;;;;;;2093861;28;20082;-71
2022/09/23 01:55:30;;;;;;;2.47;2.17;;;12.50;99.90;;;;;;2093266;28;20107;-71
2022/09/23 01:56:39;;;;;;;2.53;1.90;;;12.50;99.90;;;;;;2093390;28;20091;-71
2022/09/23 01:57:47;;;;;;;3.20;1.70;;;12.50;99.90;;;;;;2093135;28;20039;-71
2022/09/23 01:58:58;;;;;;;3.03;1.98;;;12.50;99.90;;;;;;2091470;28;20028;-71
2022/09/23 02:00:10;;;;;;;2.63;1.90;;;12.50;99.90;;;;;;2091408;28;20021;-71
2022/09/23 02:01:16;;;;;;;2.33;1.65;;;12.50;99.90;;;;;;2091998;28;20499;-71
2022/09/23 02:02:21;;;;;;;3.25;1.80;;;12.50;99.90;;;;;;2092937;28;20078;-71
2022/09/23 02:03:35;;;;;;;4.30;1.80;;;12.50;99.90;;;;;;2091430;28;20404;-71
2022/09/23 02:04:44;;;;;;;5.93;2.15;;;12.50;99.90;;;;;;2093007;28;20048;-71
2022/09/23 02:05:50;;;;;;;1.85;1.70;;;12.50;99.90;;;;;;2092167;28;20100;-71
2022/09/23 02:07:01;;;;;;;2.78;1.60;;;12.50;99.90;;;;;;2092458;28;20037;-71
2022/09/23 02:08:05;;;;;;;2.88;1.90;;;12.50;99.90;;;;;;2091491;28;20803;-71
2022/09/23 02:09:14;;;;;;;3.47;1.65;;;12.50;99.90;;;;;;2092899;28;20081;-71
2022/09/23 02:10:27;;;;;;;2.85;1.90;;;12.50;99.90;;;;;;2092623;28;20141;-72
2022/09/23 02:11:29;;;;;;;3.10;1.65;;;12.50;99.90;;;;;;2093300;28;20025;-71
2022/09/23 02:12:34;;;;;;;3.33;2.10;;;12.50;99.90;;;;;;2092937;28;20103;-71
2022/09/23 02:13:58;;;;;;;4.03;2.10;;;12.50;99.90;;;;;;2092260;28;20020;-71
2022/09/23 02:15:05;;;;;;;3.40;1.83;;;12.50;99.90;;;;;;2091537;28;20024;-71
2022/09/23 02:16:14;;;;;;;6.13;2.00;;;12.50;99.90;;;;;;2092766;28;20055;-71
2022/09/23 02:17:21;;;;;;;4.38;1.70;;;12.50;99.90;;;;;;2092687;28;20120;-71
2022/09/23 02:18:27;;;;;;;2.03;1.77;;;12.40;99.90;;;;;;2093886;28;20050;-71
2022/09/23 02:19:33;;;;;;;2.15;1.70;;;12.40;99.90;;;;;;2091807;28;20025;-71
2022/09/23 02:20:38;;;;;;;4.40;1.88;;;12.40;99.90;;;;;;2092575;28;20033;-71
2022/09/23 02:21:58;;;;;;;2.58;1.42;;;12.50;99.90;;;;;;2092471;28;20055;-71
2022/09/23 02:23:11;;;;;;;4.75;1.90;;;12.50;99.90;;;;;;2090849;28;20040;-71
2022/09/23 02:24:17;;;;;;;2.55;1.70;;;12.50;99.90;;;;;;2091653;28;20033;-71
2022/09/23 02:25:21;;;;;;;3.05;1.52;;;12.50;99.90;;;;;;2091326;28;20055;-71
2022/09/23 02:26:37;;;;;;;2.22;1.67;;;12.40;99.90;;;;;;2091765;28;20108;-71
2022/09/23 02:27:43;;;;;;;3.42;1.77;;;12.40;99.90;;;;;;2091596;28;20025;-71
2022/09/23 02:29:07;;;;;;;5.13;2.00;;;12.40;99.90;;;;;;2092843;28;20108;-71
2022/09/23 02:30:21;;;;;;;2.25;1.63;;;12.40;99.90;;;;;;2091798;28;20039;-70
2022/09/23 02:31:46;;;;;;;4.60;1.85;;;12.40;99.90;;;;;;2090075;28;20059;-70
2022/09/23 02:33:15;;;;;;;3.30;1.70;;;12.40;99.90;;;;;;2094171;28;20108;-70
2022/09/23 02:34:39;;;;;;;6.22;1.90;;;12.40;99.90;;;;;;2093023;28;20468;-70
2022/09/23 02:35:54;;;;;;;1.85;1.55;;;12.40;99.90;;;;;;2090917;28;20024;-70
2022/09/23 02:37:16;;;;;;;3.33;1.70;;;12.40;99.90;;;;;;2092011;28;20034;-70
2022/09/23 02:38:32;;;;;;;6.93;2.13;;;12.40;99.90;;;;;;2092593;28;20028;-70
2022/09/23 02:39:47;;;;;;;3.10;1.50;;;12.40;99.90;;;;;;2092334;28;20074;-70
2022/09/23 02:41:09;;;;;;;1.52;1.42;;;12.40;99.90;;;;;;2092906;28;20070;-70
2022/09/23 02:42:17;;;;;;;5.60;1.90;;;12.40;99.90;;;;;;2093030;28;20021;-70
2022/09/23 02:43:23;;;;;;;3.30;1.83;;;12.40;99.90;;;;;;2092432;28;20025;-70
2022/09/23 02:44:24;;;;;;;1.58;1.48;;;12.50;99.90;;;;;;2093525;28;20057;-70
2022/09/23 02:45:24;;;;;;;2.40;1.50;;;12.50;99.90;;;;;;2093190;28;20020;-70
2022/09/23 02:46:28;;;;;;;2.83;1.48;;;12.50;99.90;;;;;;2091921;28;20044;-71
2022/09/23 02:47:32;;;;;;;3.70;1.60;;;12.50;99.90;;;;;;2094261;28;20051;-70
2022/09/23 02:48:55;;;;;;;4.55;1.98;;;12.50;99.90;;;;;;2094399;28;20020;-70
2022/09/23 02:49:56;;;;;;;2.80;1.60;;;12.50;99.90;;;;;;2093065;28;20025;-70
2022/09/23 02:50:57;;;;;;;4.63;2.08;;;12.50;99.90;;;;;;2092036;28;20020;-70
2022/09/23 02:52:04;;;;;;;3.22;1.80;;;12.50;99.90;;;;;;2093323;28;20121;-70
2022/09/23 02:53:06;;;;;;;3.85;1.80;;;12.50;99.90;;;;;;2091818;28;20500;-70
2022/09/23 02:54:13;;;;;;;3.58;1.80;;;12.50;99.90;;;;;;2091199;28;20034;-70
2022/09/23 02:55:17;;;;;;;2.97;2.10;;;12.50;99.90;;;;;;2093289;28;20920;-70
2022/09/23 02:56:19;;;;;;;3.78;1.60;;;12.60;99.90;;;;;;2092303;28;20110;-70
2022/09/23 02:57:20;;;;;;;4.93;2.08;;;12.60;99.90;;;;;;2093282;28;20396;-70
2022/09/23 02:58:21;;;;;;;7.43;1.73;;;12.60;99.90;;;;;;2092227;28;20043;-70
2022/09/23 02:59:23;;;;;;;3.03;1.85;;;12.60;99.90;;;;;;2091200;28;20096;-70
2022/09/23 03:00:25;;;;;;;1.92;1.40;;;12.60;99.90;;;;;;2092970;28;20103;-70
2022/09/23 03:01:46;;;;;;;5.13;1.77;;;12.60;99.90;;;;;;2093713;28;20066;-70
2022/09/23 03:03:13;;;;;;;;;;;12.60;99.90;;;;;;2094254;28;20090;-70
2022/09/23 03:04:24;;;;;;;5.43;1.92;;;12.50;99.90;;;;;;2091838;28;19936;-70
2022/09/23 03:05:31;;;;;;;3.25;1.55;;;12.50;99.90;;;;;;2093635;28;20139;-70
2022/09/23 03:06:47;;;;;;;3.05;1.67;;;12.50;99.90;;;;;;2094567;28;20345;-70
2022/09/23 03:08:22;;;;;;;2.08;1.45;;;12.60;99.90;;;;;;2093902;28;20090;-70
2022/09/23 03:09:42;;;;;;;5.68;2.53;;;12.60;99.90;;;;;;2094173;28;20511;-70
2022/09/23 03:10:55;;;;;;;2.67;1.52;;;12.60;99.90;;;;;;2094069;28;20033;-71
2022/09/23 03:12:15;;;;;;;2.13;1.50;;;12.50;99.90;;;;;;2092071;28;20408;-70
2022/09/23 03:13:18;;;;;;;;;;;12.50;99.90;;;;;;2093561;28;20032;-70
2022/09/23 03:14:32;;;;;;;1.67;1.40;;;12.50;99.90;;;;;;2095085;28;19915;-70
2022/09/23 03:15:58;;;;;;;3.50;1.35;;;12.50;99.90;;;;;;2095016;28;20396;-70
2022/09/23 03:17:13;;;;;;;3.50;1.85;;;12.50;99.90;;;;;;2093665;28;20020;-71
2022/09/23 03:18:36;;;;;;;1.58;1.40;;;12.50;99.90;;;;;;2096012;28;20024;-70
2022/09/23 03:19:58;;;;;;;2.55;1.70;;;12.60;99.90;;;;;;2093807;28;20046;-70
2022/09/23 03:21:23;;;;;;;2.80;1.80;;;12.60;99.90;;;;;;2094326;28;20055;-70
2022/09/23 03:22:30;;;;;;;2.97;1.70;;;12.60;99.90;;;;;;2092207;28;20025;-70
2022/09/23 03:23:35;;;;;;;2.67;1.50;;;12.60;99.90;;;;;;2093456;28;20033;-70
2022/09/23 03:24:38;;;;;;;4.43;1.73;;;12.60;99.90;;;;;;2093386;28;20025;-70
2022/09/23 03:25:41;;;;;;;2.00;1.42;;;12.60;99.90;;;;;;2093191;28;20013;-70
2022/09/23 03:26:45;;;;;;;2.15;1.50;;;12.60;99.90;;;;;;2093219;28;20560;-71
2022/09/23 03:27:46;;;;;;;1.98;1.50;;;12.60;99.90;;;;;;2094561;28;20028;-70
2022/09/23 03:28:49;;;;;;;1.88;1.65;;;12.60;99.90;;;;;;2091719;28;20071;-70
2022/09/23 03:29:52;;;;;;;1.88;1.50;;;12.60;99.90;;;;;;2091959;28;20476;-70
2022/09/23 03:30:54;;;;;;;4.10;1.90;;;12.60;99.90;;;;;;2092753;28;20029;-70
2022/09/23 03:31:56;;;;;;;3.60;1.52;;;12.60;99.90;;;;;;2093284;28;20421;-70
2022/09/23 03:32:59;;;;;;;1.60;1.50;;;12.60;99.90;;;;;;2094955;28;20086;-70
2022/09/23 03:34:04;;;;;;;1.67;1.50;;;12.70;99.90;;;;;;2094073;28;20028;-70
2022/09/23 03:35:05;;;;;;;3.38;1.70;;;12.70;99.90;;;;;;2092779;28;20056;-70
2022/09/23 03:37:40;;;;;;;4.65;1.83;;;12.70;99.90;;;;;;2098798;28;20036;-71
2022/09/23 03:38:48;;;;;;;3.45;1.35;;;12.70;99.90;;;;;;2096413;28;20114;-70
2022/09/23 03:40:11;;;;;;;4.97;1.67;;;12.70;99.90;;;;;;2094078;28;20024;-70
2022/09/23 03:41:16;;;;;;;2.22;1.80;;;12.70;99.90;;;;;;2091800;28;20081;-70
2022/09/23 03:42:22;;;;;;;1.90;1.38;;;12.60;99.90;;;;;;2092360;28;20107;-70
2022/09/23 03:43:23;;;;;;;2.80;1.60;;;12.60;99.90;;;;;;2092584;28;20047;-70
2022/09/23 03:44:23;;;;;;;2.65;1.60;;;12.60;99.90;;;;;;2093353;28;20025;-70
2022/09/23 03:45:29;;;;;;;1.83;1.63;;;12.60;99.90;;;;;;2094639;28;20028;-70
2022/09/23 03:46:34;;;;;;;3.47;1.73;;;12.60;99.90;;;;;;2095038;28;20476;-70
2022/09/23 03:47:35;;;;;;;2.90;1.50;;;12.60;99.90;;;;;;2096026;28;20032;-70
2022/09/23 03:48:36;;;;;;;4.47;1.98;;;12.60;99.90;;;;;;2094336;28;20024;-70
2022/09/23 03:49:38;;;;;;;1.60;1.50;;;12.60;99.90;;;;;;2094398;28;20029;-70
2022/09/23 03:50:39;;;;;;;2.95;1.73;;;12.60;99.90;;;;;;2093648;28;20396;-70
2022/09/23 03:51:39;;;;;;;5.50;1.92;;;12.60;99.90;;;;;;2094081;28;20021;-70
2022/09/23 03:52:40;;;;;;;4.22;1.60;;;12.60;99.90;;;;;;2094278;28;20518;-70
2022/09/23 03:53:41;;;;;;;3.42;1.58;;;12.60;99.90;;;;;;2090600;28;20021;-70
2022/09/23 03:54:41;;;;;;;3.03;1.65;;;12.60;99.90;;;;;;2093219;28;20207;-70
2022/09/23 03:55:44;;;;;;;2.00;1.70;;;12.60;99.90;;;;;;2090371;28;20046;-70
2022/09/23 03:56:46;;;;;;;4.68;2.15;;;12.60;99.90;;;;;;2093464;28;20051;-70
2022/09/23 03:57:47;;;;;;;1.98;1.70;;;12.60;99.90;;;;;;2094447;28;20021;-70
2022/09/23 03:58:47;;;;;;;1.48;1.23;;;12.60;99.90;;;;;;2094845;28;20040;-70
2022/09/23 03:59:49;;;;;;;2.75;1.52;;;12.60;99.90;;;;;;2093126;28;20035;-70
2022/09/23 04:00:50;;;;;;;2.08;1.63;;;12.60;99.90;;;;;;2094737;28;20020;-70
2022/09/23 04:01:51;;;;;;;2.60;1.50;;;12.60;99.90;;;;;;2093663;28;20489;-71
2022/09/23 04:02:51;;;;;;;3.00;1.63;;;12.60;99.90;;;;;;2092050;28;20040;-71
2022/09/23 04:03:52;;;;;;;2.53;1.80;;;12.60;99.90;;;;;;2092950;28;20024;-70
2022/09/23 04:04:53;;;;;;;3.03;1.85;;;12.60;99.90;;;;;;2096595;28;20047;-70
2022/09/23 04:05:54;;;;;;;2.25;1.70;;;12.60;99.90;;;;;;2094986;28;20400;-70
2022/09/23 04:06:55;;;;;;;2.33;1.60;;;12.60;99.90;;;;;;2094510;28;20025;-70
2022/09/23 04:07:55;;;;;;;2.42;1.75;;;12.50;99.90;;;;;;2093081;28;20083;-70
2022/09/23 04:08:57;;;;;;;2.75;1.90;;;12.50;99.90;;;;;;2092902;28;20028;-70
2022/09/23 04:09:58;;;;;;;2.20;1.85;;;12.50;99.90;;;;;;2092621;28;20154;-70
2022/09/23 04:11:00;;;;;;;3.35;2.00;;;12.50;99.90;;;;;;2094207;28;20040;-70
2022/09/23 04:12:02;;;;;;;4.43;1.70;;;12.50;99.90;;;;;;2094244;28;20057;-70
2022/09/23 04:13:03;;;;;;;2.97;1.70;;;12.50;99.90;;;;;;2092191;28;20040;-70
2022/09/23 04:14:04;;;;;;;3.00;1.83;;;12.50;99.90;;;;;;2093492;28;20025;-70
2022/09/23 04:15:05;;;;;;;1.73;1.63;;;12.40;99.90;;;;;;2092785;28;20028;-70
2022/09/23 04:16:06;;;;;;;2.45;1.60;;;12.40;99.90;;;;;;2091847;28;20031;-70
2022/09/23 04:17:07;;;;;;;2.08;1.65;;;12.40;99.90;;;;;;2094473;28;20031;-70
2022/09/23 04:18:08;;;;;;;1.45;1.33;;;12.30;99.90;;;;;;2094689;28;20036;-70
2022/09/23 04:19:09;;;;;;;3.10;1.98;;;12.40;99.90;;;;;;2092303;28;20041;-70
2022/09/23 04:20:10;;;;;;;1.52;1.42;;;12.30;99.90;;;;;;2092400;28;20048;-70
2022/09/23 04:21:10;;;;;;;2.42;1.77;;;12.30;99.90;;;;;;2093165;28;20043;-70
2022/09/23 04:22:11;;;;;;;1.60;1.50;;;12.30;99.90;;;;;;2091538;28;20052;-70
2022/09/23 04:23:12;;;;;;;3.72;2.10;;;12.30;99.90;;;;;;2094700;28;20439;-70
2022/09/23 04:24:13;;;;;;;5.30;1.63;;;12.20;99.90;;;;;;2091092;28;20035;-70
2022/09/23 04:25:14;;;;;;;5.80;2.08;;;12.20;99.90;;;;;;2092680;28;20586;-70
2022/09/23 04:26:15;;;;;;;3.72;1.70;;;12.20;99.90;;;;;;2092306;28;20432;-70
2022/09/23 04:27:15;;;;;;;2.45;1.77;;;12.20;99.90;;;;;;2092364;28;20488;-70
2022/09/23 04:28:16;;;;;;;1.77;1.52;;;12.20;99.90;;;;;;2102940;28;20138;-70
2022/09/23 04:29:16;;;;;;;2.25;1.60;;;12.10;99.90;;;;;;2101345;28;20028;-71
2022/09/23 04:30:17;;;;;;;1.67;1.58;;;12.10;99.90;;;;;;2093786;28;20454;-70
2022/09/23 04:31:18;;;;;;;3.40;2.00;;;12.10;99.90;;;;;;2094687;28;20024;-70
2022/09/23 04:32:18;;;;;;;3.92;1.80;;;12.10;99.90;;;;;;2093053;28;20434;-70
2022/09/23 04:33:19;;;;;;;2.75;1.77;;;12.10;99.90;;;;;;2090074;28;20020;-70
2022/09/23 04:34:19;;;;;;;2.03;1.67;;;12.00;99.90;;;;;;2093134;28;20028;-70
2022/09/23 04:35:20;;;;;;;2.20;2.00;;;12.00;99.90;;;;;;2093282;28;20013;-70
2022/09/23 04:36:21;;;;;;;2.22;1.85;;;12.00;99.90;;;;;;2092754;28;20104;-70
2022/09/23 04:37:21;;;;;;;2.30;1.73;;;12.00;99.90;;;;;;2093145;28;20468;-70
2022/09/23 04:38:22;;;;;;;3.15;1.67;;;12.00;99.90;;;;;;2092436;28;20017;-70
2022/09/23 04:39:22;;;;;;;5.68;1.83;;;11.90;99.90;;;;;;2092525;28;20377;-70
2022/09/23 04:40:23;;;;;;;2.58;1.90;;;11.90;99.90;;;;;;2092629;28;20078;-70
2022/09/23 04:41:23;;;;;;;2.25;1.70;;;11.90;99.90;;;;;;2092943;28;20577;-70
2022/09/23 04:42:28;;;;;;;2.63;1.42;;;11.90;99.90;;;;;;2094217;28;20035;-71
2022/09/23 04:43:28;;;;;;;2.78;1.80;;;11.90;99.90;;;;;;2094236;28;20036;-71
2022/09/23 04:44:29;;;;;;;3.60;2.08;;;11.80;99.90;;;;;;2092416;28;20070;-71
2022/09/23 04:45:30;;;;;;;2.22;2.03;;;11.80;99.90;;;;;;2092828;28;20469;-71
2022/09/23 04:46:30;;;;;;;5.38;2.10;;;11.80;99.90;;;;;;2093686;28;20021;-70
2022/09/23 04:47:31;;;;;;;3.22;1.95;;;11.80;99.90;;;;;;2092941;28;20024;-70
2022/09/23 04:48:32;;;;;;;2.90;2.05;;;11.80;99.90;;;;;;2094831;28;20048;-70
2022/09/23 04:49:33;;;;;;;1.95;1.38;;;11.70;99.90;;;;;;2093141;28;20451;-70
2022/09/23 04:50:33;;;;;;;3.80;1.92;;;11.80;99.90;;;;;;2099197;28;20102;-70
2022/09/23 04:51:34;;;;;;;3.45;2.10;;;11.70;99.90;;;;;;2093385;28;20064;-70
2022/09/23 04:52:35;;;;;;;2.55;2.20;;;11.70;99.90;;;;;;2093360;28;20382;-70
2022/09/23 04:53:38;;;;;;;3.83;2.17;;;11.70;99.90;;;;;;2094911;28;20020;-70
2022/09/23 04:54:40;;;;;;;3.30;2.25;;;11.70;99.90;;;;;;2095296;28;20023;-70
2022/09/23 04:55:42;;;;;;;2.58;1.90;;;11.70;99.90;;;;;;2091949;28;20016;-70
2022/09/23 04:56:43;;;;;;;2.03;1.80;;;11.70;99.90;;;;;;2091932;28;20485;-70
2022/09/23 04:57:43;;;;;;;5.90;2.80;;;11.70;99.90;;;;;;2093371;28;20388;-70
2022/09/23 04:58:44;;;;;;;3.58;2.15;;;11.70;99.90;;;;;;2093758;28;20104;-70
2022/09/23 04:59:45;;;;;;;2.60;1.90;;;11.60;99.90;;;;;;2090968;28;20043;-70
2022/09/23 05:00:46;;;;;;;3.40;2.10;;;11.60;99.90;;;;;;2093437;28;20050;-70
2022/09/23 05:01:46;;;;;;;2.53;1.80;;;11.60;99.90;;;;;;2092204;28;20087;-70
2022/09/23 05:02:49;;;;;;;2.78;2.03;;;11.60;99.90;;;;;;2093098;28;20021;-70
2022/09/23 05:03:51;;;;;;;4.47;2.20;;;11.60;99.90;;;;;;2091858;28;20019;-70
2022/09/23 05:04:52;;;;;;;2.97;2.15;;;11.60;99.90;;;;;;2092652;28;20025;-70
2022/09/23 05:05:58;;;;;;;3.60;2.13;;;11.60;99.90;;;;;;2091094;28;20059;-70
2022/09/23 05:06:59;;;;;;;2.75;1.77;;;11.60;99.90;;;;;;2094040;28;20035;-70
2022/09/23 05:08:00;;;;;;;2.85;2.10;;;11.60;99.90;;;;;;2092996;28;20067;-70
2022/09/23 05:09:02;;;;;;;3.63;2.10;;;11.60;99.90;;;;;;2094704;28;20044;-70
2022/09/23 05:10:03;;;;;;;4.18;2.20;;;11.50;99.90;;;;;;2094832;28;20040;-70
2022/09/23 05:11:04;;;;;;;4.13;2.20;;;11.50;99.90;;;;;;2092572;28;20075;-70
2022/09/23 05:12:05;;;;;;;3.33;2.20;;;11.50;99.90;;;;;;2092126;28;20043;-70
2022/09/23 05:13:06;;;;;;;5.22;1.98;;;11.50;99.90;;;;;;2091612;28;20411;-70
2022/09/23 05:14:06;;;;;;;3.55;1.98;;;11.50;99.90;;;;;;2093149;28;20033;-70
2022/09/23 05:15:07;;;;;;;2.30;2.10;;;11.50;99.90;;;;;;2091324;28;20033;-70
2022/09/23 05:16:10;;;;;;;3.55;1.98;;;11.50;99.90;;;;;;2092076;28;20028;-70
2022/09/23 05:17:11;;;;;;;2.35;2.15;;;11.50;99.90;;;;;;2092377;28;20040;-70
2022/09/23 05:18:11;;;;;;;5.15;2.15;;;11.50;99.90;;;;;;2092696;28;20025;-70
2022/09/23 05:19:12;;;;;;;4.22;1.67;;;11.50;99.90;;;;;;2093659;28;20440;-70
2022/09/23 05:20:13;;;;;;;3.47;2.10;;;11.50;99.90;;;;;;2093566;28;20045;-70
2022/09/23 05:21:16;;;;;;;5.18;2.30;;;11.50;99.90;;;;;;2090406;28;20046;-70
2022/09/23 05:22:16;;;;;;;4.93;2.20;;;11.60;99.90;;;;;;2099762;28;20715;-70
2022/09/23 05:23:17;;;;;;;4.95;2.30;;;11.50;99.90;;;;;;2100137;28;20372;-70
2022/09/23 05:24:18;;;;;;;5.72;2.40;;;11.50;99.90;;;;;;2091052;28;20063;-70
2022/09/23 05:25:18;;;;;;;3.13;2.22;;;11.50;99.90;;;;;;2091967;28;21878;-70
2022/09/23 05:26:20;;;;;;;3.00;2.30;;;11.50;99.90;;;;;;2092289;28;20123;-70
2022/09/23 05:27:21;;;;;;;3.40;1.95;;;11.50;99.90;;;;;;2092616;28;20025;-70
2022/09/23 05:28:21;;;;;;;3.35;2.40;;;11.60;99.90;;;;;;2095232;28;20589;-70
2022/09/23 05:29:22;;;;;;;6.30;2.60;;;11.60;99.90;;;;;;2091826;28;20573;-71
2022/09/23 05:30:22;;;;;;;4.75;2.30;;;11.60;99.90;;;;;;2090863;28;20040;-70
2022/09/23 05:31:26;;;;;;;4.22;2.25;;;11.50;99.90;;;;;;2086646;28;20028;-70
2022/09/23 05:32:26;;;;;;;3.40;2.10;;;11.60;99.90;;;;;;2090904;28;20559;-70
2022/09/23 05:33:28;;;;;;;6.80;2.53;;;11.50;99.90;;;;;;2089835;28;20052;-70
2022/09/23 05:34:29;;;;;;;2.95;2.42;;;11.50;99.90;;;;;;2089623;28;20092;-70
2022/09/23 05:35:29;;;;;;;7.95;2.60;;;11.50;99.90;;;;;;2091220;28;20078;-70
2022/09/23 05:36:33;;;;;;;2.33;2.13;;;11.50;99.90;;;;;;2092028;28;21620;-70
2022/09/23 05:37:33;;;;;;;3.58;2.15;;;11.50;99.90;;;;;;2091456;28;20028;-70
2022/09/23 05:38:34;;;;;;;2.75;2.20;;;11.50;99.90;;;;;;2089778;28;20096;-70
2022/09/23 05:39:35;;;;;;;3.20;2.00;;;11.50;99.90;;;;;;2091344;28;20074;-70
2022/09/23 05:40:36;;;;;;;4.25;2.30;;;11.50;99.90;;;;;;2091535;28;20016;-70
2022/09/23 05:41:37;;;;;;;3.97;2.38;;;11.40;99.90;;;;;;2089060;28;20028;-70
2022/09/23 05:42:37;;;;;;;4.43;2.58;;;11.50;99.90;;;;;;2091494;28;20052;-70
2022/09/23 05:43:38;;;;;;;3.22;2.35;;;11.50;99.90;;;;;;2090964;28;20590;-70
2022/09/23 05:44:39;;;;;;;5.53;3.08;;;11.50;99.90;;;;;;2090798;28;20024;-70
2022/09/23 05:45:39;;;;;;;3.83;2.58;;;11.50;99.90;;;;;;2091525;28;20068;-70
2022/09/23 05:46:40;;;;;;;4.32;2.40;;;11.50;99.90;;;;;;2091149;28;20013;-70